KCAK/CAK METAR and TAF weather

Enter ICAO airport designator
Station Type Date Time Source
KCAK METAR 2020/12/05 05:51 UTC NOAA

KCAK 050551Z 32005KT 8SM OVC048 04/01 A2989 RMK AO2 SLP128 T00390006 10050 20028 56002


Station Type Date Time Source
KCAK Decoded METAR 2020/12/05 05:51 UTC NOAA

AKRON-CANTON REGIONAL AIRPORT , OH, United States (KCAK) 40-55N 081-27W 377M
Dec 05, 2020 - 12:51 AM EST / 2020.12.05 0551 UTC
Wind: from the NW (320 degrees) at 6 MPH (5 KT):0
Visibility: 8 mile(s):0
Sky conditions: overcast
Temperature: 39.0 F (3.9 C)
Dew Point: 33.1 F (0.6 C)
Relative Humidity: 79%
Pressure (altimeter): 29.89 in. Hg (1012 hPa)
Pressure tendency: 0.01 inches (0.2 hPa) lower than three hours ago
ob: KCAK 050551Z 32005KT 8SM OVC048 04/01 A2989 RMK AO2 SLP128 T00390006 10050 20028 56002
cycle: 6

Station Type Date Time Source
KCAK TAF 2020/12/05 06:33 UTC NOAA

TAF KCAK 050530Z 0506/0606 30004KT P6SM BKN040
FM050900 33006KT P6SM OVC025
FM051700 31009KT P6SM VCSH OVC020

Example: see airport list